createdAt,value
2022-09-21T00:00:39.951Z,1.60
2022-09-21T00:01:39.968Z,1.60
2022-09-21T00:02:40.371Z,1.40
2022-09-21T00:03:39.916Z,1.20
2022-09-21T00:04:39.905Z,1.40
2022-09-21T00:05:39.895Z,1.50
2022-09-21T00:06:39.879Z,1.40
2022-09-21T00:07:39.861Z,1.50
2022-09-21T00:08:40.154Z,1.40
2022-09-21T00:09:39.839Z,1.70
2022-09-21T00:10:39.823Z,1.70
2022-09-21T00:11:39.793Z,1.70
2022-09-21T00:12:39.790Z,1.40
2022-09-21T00:13:40.210Z,1.30
2022-09-21T00:14:39.780Z,1.60
2022-09-21T00:15:39.752Z,1.30
2022-09-21T00:16:39.781Z,1.30
2022-09-21T00:17:39.723Z,1.40
2022-09-21T00:18:40.101Z,1.40
2022-09-21T00:19:39.701Z,1.30
2022-09-21T00:20:39.691Z,1.30
2022-09-21T00:21:39.683Z,1.10
2022-09-21T00:22:39.689Z,1.10
2022-09-21T00:23:39.656Z,1.20
2022-09-21T00:24:40.031Z,1.60
2022-09-21T00:25:39.639Z,1.00
2022-09-21T00:26:39.636Z,1.10
2022-09-21T00:27:39.597Z,1.30
2022-09-21T00:28:39.588Z,1.10
2022-09-21T00:29:39.897Z,1.40
2022-09-21T00:30:39.569Z,1.50
2022-09-21T00:31:39.599Z,1.50
2022-09-21T00:32:39.560Z,1.70
2022-09-21T00:33:39.536Z,1.60
2022-09-21T00:34:39.955Z,1.50
2022-09-21T00:35:39.498Z,1.70
2022-09-21T00:36:39.494Z,1.40
2022-09-21T00:37:39.486Z,1.50
2022-09-21T00:38:39.464Z,1.60
2022-09-21T00:39:39.447Z,1.40
2022-09-21T00:40:39.872Z,1.50
2022-09-21T00:41:39.426Z,1.60
2022-09-21T00:42:39.413Z,1.10
2022-09-21T00:43:39.413Z,1.50
2022-09-21T00:44:39.394Z,1.30
2022-09-21T00:45:39.772Z,1.10
2022-09-21T00:46:39.371Z,1.40
2022-09-21T00:47:39.353Z,1.70
2022-09-21T00:48:39.359Z,1.80
2022-09-21T00:49:39.322Z,1.50
2022-09-21T00:50:39.331Z,1.50
2022-09-21T00:51:39.731Z,1.40
2022-09-21T00:52:39.291Z,1.30
2022-09-21T00:53:39.277Z,1.10
2022-09-21T00:54:39.261Z,1.20
2022-09-21T00:55:39.258Z,1.10
2022-09-21T00:56:39.649Z,1.50
2022-09-21T00:57:39.228Z,1.30
2022-09-21T00:58:39.218Z,1.20
2022-09-21T00:59:39.206Z,1.30
2022-09-21T01:00:39.220Z,1.50
2022-09-21T01:01:39.178Z,1.50
2022-09-21T01:02:39.518Z,1.50
2022-09-21T01:03:39.159Z,1.40
2022-09-21T01:04:39.135Z,1.40
2022-09-21T01:05:39.120Z,1.60
2022-09-21T01:06:39.116Z,1.20
2022-09-21T01:07:39.527Z,1.30
2022-09-21T01:08:39.088Z,1.50
2022-09-21T01:09:39.079Z,1.10
2022-09-21T01:10:39.064Z,1.40
2022-09-21T01:11:39.044Z,1.30
2022-09-21T01:12:39.455Z,1.40
2022-09-21T01:13:39.029Z,1.40
2022-09-21T01:14:39.012Z,1.40
2022-09-21T01:15:38.993Z,1.50
2022-09-21T01:16:39.018Z,1.70
2022-09-21T01:17:38.975Z,1.40
2022-09-21T01:18:39.342Z,1.30
2022-09-21T01:19:38.944Z,1.30
2022-09-21T01:20:38.942Z,1.40
2022-09-21T01:21:38.927Z,1.50
2022-09-21T01:22:38.922Z,1.40
2022-09-21T01:23:39.280Z,1.20
2022-09-21T01:24:38.889Z,1.40
2022-09-21T01:25:38.871Z,1.10
2022-09-21T01:26:38.884Z,1.20
2022-09-21T01:27:38.869Z,1.30
2022-09-21T01:28:39.283Z,1.20
2022-09-21T01:29:38.816Z,1.20
2022-09-21T01:30:38.811Z,1.30
2022-09-21T01:31:38.818Z,1.30
2022-09-21T01:32:39.209Z,1.30
2022-09-21T01:33:38.769Z,1.40
2022-09-21T01:34:38.759Z,1.40
2022-09-21T01:35:38.747Z,1.30
2022-09-21T01:36:38.745Z,1.40
2022-09-21T01:37:39.116Z,1.30
2022-09-21T01:38:38.715Z,0.90
2022-09-21T01:39:38.697Z,1.10
2022-09-21T01:40:38.721Z,1.10
2022-09-21T01:41:38.675Z,1.50
2022-09-21T01:42:38.663Z,1.40
2022-09-21T01:43:38.998Z,1.30
2022-09-21T01:44:38.644Z,1.30
2022-09-21T01:45:38.653Z,1.50
2022-09-21T01:46:38.612Z,1.40
2022-09-21T01:47:38.610Z,1.20
2022-09-21T01:48:38.904Z,1.40
2022-09-21T01:49:38.575Z,1.30
2022-09-21T01:50:38.570Z,1.30
2022-09-21T01:51:38.541Z,1.00
2022-09-21T01:52:38.539Z,1.50
2022-09-21T01:53:38.511Z,1.40
2022-09-21T01:54:38.940Z,1.20
2022-09-21T01:55:38.501Z,1.20
2022-09-21T01:56:38.495Z,1.10
2022-09-21T01:57:38.472Z,1.10
2022-09-21T01:58:38.459Z,1.60
2022-09-21T01:59:38.871Z,1.10
2022-09-21T02:00:38.485Z,1.50
2022-09-21T02:01:38.445Z,1.20
2022-09-21T02:02:38.416Z,1.60
2022-09-21T02:03:38.388Z,1.30
2022-09-21T02:04:38.757Z,1.30
2022-09-21T02:05:38.359Z,1.40
2022-09-21T02:06:38.378Z,1.20
2022-09-21T02:07:38.337Z,1.40
2022-09-21T02:08:38.330Z,1.50
2022-09-21T02:09:38.317Z,1.50
2022-09-21T02:10:38.646Z,1.60
2022-09-21T02:11:38.295Z,1.50
2022-09-21T02:12:38.286Z,1.40
2022-09-21T02:13:38.267Z,1.40
2022-09-21T02:14:38.251Z,1.60
2022-09-21T02:15:38.674Z,1.30
2022-09-21T02:16:38.222Z,1.40
2022-09-21T02:17:38.225Z,1.00
2022-09-21T02:18:38.194Z,1.00
2022-09-21T02:19:38.186Z,1.40
2022-09-21T02:20:38.610Z,1.30
2022-09-21T02:21:38.163Z,1.50
2022-09-21T02:22:38.142Z,1.20
2022-09-21T02:23:38.131Z,1.80
2022-09-21T02:24:38.123Z,1.20
2022-09-21T02:25:38.473Z,1.30
2022-09-21T02:26:38.100Z,1.30
2022-09-21T02:27:38.091Z,1.40
2022-09-21T02:28:38.072Z,1.60
2022-09-21T02:29:38.069Z,1.30
2022-09-21T02:30:38.426Z,1.10
2022-09-21T02:31:38.065Z,1.30
2022-09-21T02:32:38.030Z,1.50
2022-09-21T02:33:38.013Z,1.30
2022-09-21T02:34:37.999Z,1.50
2022-09-21T02:35:38.409Z,1.20
2022-09-21T02:36:37.968Z,1.30
2022-09-21T02:37:37.957Z,1.30
2022-09-21T02:38:37.945Z,1.40
2022-09-21T02:39:37.935Z,1.10
2022-09-21T02:40:38.374Z,1.20
2022-09-21T02:41:37.905Z,1.20
2022-09-21T02:42:37.896Z,1.40
2022-09-21T02:43:37.886Z,1.40
2022-09-21T02:44:37.876Z,1.00
2022-09-21T02:45:38.204Z,1.40
2022-09-21T02:46:37.884Z,1.00
2022-09-21T02:47:37.828Z,1.90
2022-09-21T02:48:37.827Z,1.40
2022-09-21T02:49:37.795Z,1.60
2022-09-21T02:50:38.113Z,1.40
2022-09-21T02:51:37.777Z,1.20
2022-09-21T02:52:37.774Z,1.30
2022-09-21T02:53:37.756Z,1.70
2022-09-21T02:54:37.741Z,1.10
2022-09-21T02:55:38.162Z,1.20
2022-09-21T02:56:37.731Z,1.40
2022-09-21T02:57:37.704Z,1.30
2022-09-21T02:58:37.691Z,1.50
2022-09-21T02:59:37.681Z,1.10
2022-09-21T03:00:38.064Z,1.30
2022-09-21T03:01:37.677Z,1.30
2022-09-21T03:02:37.640Z,1.50
2022-09-21T03:03:37.623Z,1.30
2022-09-21T03:04:37.618Z,1.10
2022-09-21T03:05:37.921Z,1.50
2022-09-21T03:06:37.593Z,1.20
2022-09-21T03:07:37.585Z,1.30
2022-09-21T03:08:37.574Z,1.30
2022-09-21T03:09:37.538Z,1.40
2022-09-21T03:10:37.965Z,1.30
2022-09-21T03:11:37.506Z,1.10
2022-09-21T03:12:37.507Z,1.40
2022-09-21T03:13:37.506Z,1.20
2022-09-21T03:14:37.482Z,1.40
2022-09-21T03:15:37.495Z,1.30
2022-09-21T03:16:37.894Z,1.30
2022-09-21T03:17:37.446Z,1.30
2022-09-21T03:18:37.445Z,1.30
2022-09-21T03:19:37.436Z,1.20
2022-09-21T03:20:37.404Z,1.60
2022-09-21T03:21:42.336Z,1.50
2022-09-21T03:22:38.400Z,1.60
2022-09-21T03:23:37.380Z,1.40
2022-09-21T03:24:37.364Z,1.00
2022-09-21T03:25:37.342Z,1.70
2022-09-21T03:26:37.711Z,1.40
2022-09-21T03:27:37.323Z,1.20
2022-09-21T03:28:37.314Z,1.10
2022-09-21T03:29:37.290Z,1.40
2022-09-21T03:30:37.283Z,1.40
2022-09-21T03:31:37.710Z,1.40
2022-09-21T03:32:37.276Z,1.10
2022-09-21T03:33:37.248Z,1.40
2022-09-21T03:34:37.242Z,1.30
2022-09-21T03:35:37.218Z,1.30
2022-09-21T03:36:37.636Z,1.30
2022-09-21T03:37:41.199Z,1.50
2022-09-21T03:38:37.188Z,1.00
2022-09-21T03:39:37.172Z,1.10
2022-09-21T03:40:37.573Z,1.10
2022-09-21T03:41:37.146Z,1.30
2022-09-21T03:42:37.126Z,1.30
2022-09-21T03:43:37.106Z,1.50
2022-09-21T03:44:37.107Z,1.10
2022-09-21T03:45:37.094Z,1.10
2022-09-21T03:46:37.473Z,1.10
2022-09-21T03:47:37.080Z,1.20
2022-09-21T03:48:37.075Z,1.30
2022-09-21T03:49:37.042Z,1.20
2022-09-21T03:50:37.041Z,1.00
2022-09-21T03:51:37.437Z,1.30
2022-09-21T03:52:37.018Z,1.30
2022-09-21T03:53:36.985Z,1.40
2022-09-21T03:54:36.981Z,1.30
2022-09-21T03:55:36.973Z,1.30
2022-09-21T03:56:37.256Z,1.70
2022-09-21T03:57:36.942Z,1.00
2022-09-21T03:58:36.923Z,1.10
2022-09-21T03:59:36.932Z,1.20
2022-09-21T04:00:36.911Z,0.90
2022-09-21T04:01:37.348Z,1.50
2022-09-21T04:02:36.920Z,1.10
2022-09-21T04:03:36.867Z,1.50
2022-09-21T04:04:36.859Z,1.50
2022-09-21T04:05:36.846Z,1.40
2022-09-21T04:06:37.267Z,1.20
2022-09-21T04:07:36.828Z,1.40
2022-09-21T04:08:36.800Z,1.40
2022-09-21T04:09:36.795Z,1.40
2022-09-21T04:10:36.780Z,1.50
2022-09-21T04:11:37.188Z,1.10
2022-09-21T04:12:36.760Z,1.30
2022-09-21T04:13:36.738Z,1.30
2022-09-21T04:14:36.727Z,1.60
2022-09-21T04:15:36.804Z,1.30
2022-09-21T04:16:37.045Z,1.50
2022-09-21T04:17:36.692Z,1.20
2022-09-21T04:18:36.675Z,1.40
2022-09-21T04:19:36.676Z,1.30
2022-09-21T04:20:36.635Z,1.20
2022-09-21T04:21:37.062Z,1.40
2022-09-21T04:22:41.133Z,1.10
2022-09-21T04:23:37.604Z,1.30
2022-09-21T04:24:36.606Z,1.40
2022-09-21T04:25:36.582Z,1.40
2022-09-21T04:26:36.870Z,1.70
2022-09-21T04:27:36.564Z,1.70
2022-09-21T04:28:36.533Z,1.80
2022-09-21T04:29:36.541Z,1.80
2022-09-21T04:30:37.980Z,2.00
2022-09-21T04:31:36.839Z,1.60
2022-09-21T04:32:36.526Z,2.00
2022-09-21T04:33:36.491Z,1.70
2022-09-21T04:34:36.480Z,1.60
2022-09-21T04:35:36.458Z,1.10
2022-09-21T04:36:36.883Z,1.10
2022-09-21T04:37:36.425Z,1.60
2022-09-21T04:38:36.409Z,1.30
2022-09-21T04:39:36.398Z,1.40
2022-09-21T04:40:36.460Z,1.50
2022-09-21T04:41:36.704Z,1.40
2022-09-21T04:42:36.358Z,1.60
2022-09-21T04:43:36.354Z,2.00
2022-09-21T04:44:36.344Z,1.70
2022-09-21T04:45:36.404Z,1.90
2022-09-21T04:46:43.337Z,1.70
2022-09-21T04:47:36.288Z,1.80
2022-09-21T04:48:44.271Z,1.80
2022-09-21T04:49:36.373Z,1.20
2022-09-21T04:50:36.263Z,1.50
2022-09-21T04:51:36.562Z,1.20
2022-09-21T04:52:36.248Z,1.20
2022-09-21T04:53:36.214Z,1.20
2022-09-21T04:54:36.231Z,1.50
2022-09-21T04:55:36.200Z,1.20
2022-09-21T04:56:36.220Z,1.50
2022-09-21T04:57:36.321Z,1.30
2022-09-21T04:58:36.150Z,1.40
2022-09-21T04:59:36.143Z,1.30
2022-09-21T05:00:36.130Z,1.30
2022-09-21T05:01:36.171Z,0.90
2022-09-21T05:02:36.559Z,1.20
2022-09-21T05:03:36.270Z,1.60
2022-09-21T05:04:36.082Z,1.30
2022-09-21T05:05:36.068Z,0.90
2022-09-21T05:06:36.059Z,1.50
2022-09-21T05:07:36.359Z,1.40
2022-09-21T05:08:36.030Z,1.00
2022-09-21T05:09:36.101Z,1.00
2022-09-21T05:10:36.086Z,1.00
2022-09-21T05:11:36.007Z,0.90
2022-09-21T05:12:39.716Z,1.20
2022-09-21T05:13:36.973Z,1.10
2022-09-21T05:14:35.957Z,1.20
2022-09-21T05:15:35.995Z,1.20
2022-09-21T05:16:36.318Z,1.20
2022-09-21T05:17:35.913Z,1.10
2022-09-21T05:18:35.920Z,1.20
2022-09-21T05:19:35.895Z,1.10
2022-09-21T05:20:36.133Z,1.00
2022-09-21T05:21:35.934Z,1.10
2022-09-21T05:22:36.237Z,1.10
2022-09-21T05:23:35.843Z,1.00
2022-09-21T05:24:35.831Z,1.00
2022-09-21T05:25:35.824Z,1.10
2022-09-21T05:26:35.928Z,1.10
2022-09-21T05:27:36.142Z,1.10
2022-09-21T05:28:39.839Z,1.10
2022-09-21T05:29:35.782Z,1.10
2022-09-21T05:30:35.810Z,1.30
2022-09-21T05:31:35.776Z,1.20
2022-09-21T05:32:36.151Z,1.00
2022-09-21T05:33:35.732Z,1.10
2022-09-21T05:34:36.773Z,1.10
2022-09-21T05:35:35.699Z,1.30
2022-09-21T05:36:35.679Z,1.20
2022-09-21T05:37:35.658Z,1.50
2022-09-21T05:38:36.106Z,1.20
2022-09-21T05:39:35.647Z,1.10
2022-09-21T05:40:35.688Z,1.20
2022-09-21T05:41:35.618Z,1.10
2022-09-21T05:42:35.605Z,1.30
2022-09-21T05:43:35.905Z,1.30
2022-09-21T05:44:35.576Z,1.20
2022-09-21T05:45:35.607Z,1.20
2022-09-21T05:46:35.554Z,1.20
2022-09-21T05:47:35.535Z,1.20
2022-09-21T05:48:35.525Z,1.20
2022-09-21T05:49:35.904Z,1.70
2022-09-21T05:50:35.523Z,1.10
2022-09-21T05:51:35.494Z,1.00
2022-09-21T05:52:35.588Z,0.90
2022-09-21T05:53:35.456Z,1.10
2022-09-21T05:54:35.884Z,1.10
2022-09-21T05:55:35.446Z,1.20
2022-09-21T05:56:35.422Z,0.90
2022-09-21T05:57:35.438Z,1.30
2022-09-21T05:58:35.841Z,0.90
2022-09-21T05:59:35.392Z,1.40
2022-09-21T06:00:35.380Z,0.80
2022-09-21T06:01:35.413Z,1.00
2022-09-21T06:02:35.374Z,1.00
2022-09-21T06:03:35.340Z,1.20
2022-09-21T06:04:35.857Z,1.10
2022-09-21T06:05:35.308Z,1.30
2022-09-21T06:06:35.312Z,1.10
2022-09-21T06:07:35.279Z,1.20
2022-09-21T06:08:35.269Z,1.00
2022-09-21T06:09:43.744Z,1.20
2022-09-21T06:10:43.255Z,1.40
2022-09-21T06:11:42.241Z,1.10
2022-09-21T06:12:42.221Z,1.50
2022-09-21T06:13:42.209Z,1.40
2022-09-21T06:14:35.656Z,1.20
2022-09-21T06:15:35.218Z,1.30
2022-09-21T06:16:35.174Z,1.20
2022-09-21T06:17:35.165Z,1.20
2022-09-21T06:18:35.149Z,1.20
2022-09-21T06:19:35.458Z,1.30
2022-09-21T06:20:35.187Z,1.00
2022-09-21T06:21:35.106Z,1.00
2022-09-21T06:22:35.098Z,1.40
2022-09-21T06:23:35.077Z,1.20
2022-09-21T06:24:35.096Z,1.20
2022-09-21T06:25:35.075Z,1.20
2022-09-21T06:26:35.077Z,1.00
2022-09-21T06:27:35.034Z,1.40
2022-09-21T06:28:35.015Z,1.10
2022-09-21T06:29:35.390Z,1.10
2022-09-21T06:30:35.107Z,1.10
2022-09-21T06:31:34.986Z,1.10
2022-09-21T06:32:34.966Z,1.00
2022-09-21T06:33:35.024Z,1.20
2022-09-21T06:34:42.400Z,1.00
2022-09-21T06:35:41.935Z,0.80
2022-09-21T06:36:34.925Z,1.10
2022-09-21T06:37:34.919Z,1.10
2022-09-21T06:38:34.887Z,1.10
2022-09-21T06:39:35.305Z,1.00
2022-09-21T06:40:34.993Z,1.10
2022-09-21T06:41:34.865Z,1.00
2022-09-21T06:42:34.835Z,0.90
2022-09-21T06:43:34.824Z,1.10
2022-09-21T06:44:35.195Z,0.90
2022-09-21T06:45:34.882Z,0.90
2022-09-21T06:46:34.814Z,1.00
2022-09-21T06:47:34.784Z,1.00
2022-09-21T06:48:34.767Z,0.80
2022-09-21T06:49:37.209Z,0.90
2022-09-21T06:50:35.742Z,0.90
2022-09-21T06:51:34.734Z,1.10
2022-09-21T06:52:34.722Z,1.00
2022-09-21T06:53:34.709Z,1.00
2022-09-21T06:54:34.672Z,0.70
2022-09-21T06:55:35.142Z,1.30
2022-09-21T06:56:34.673Z,1.20
2022-09-21T06:57:34.672Z,0.80
2022-09-21T06:58:34.650Z,1.20
2022-09-21T06:59:34.629Z,1.10
2022-09-21T07:00:35.051Z,1.10
2022-09-21T07:01:34.659Z,1.00
2022-09-21T07:02:34.590Z,0.90
2022-09-21T07:03:34.571Z,1.00
2022-09-21T07:04:34.560Z,1.40
2022-09-21T07:05:34.559Z,1.10
2022-09-21T07:06:34.961Z,1.10
2022-09-21T07:07:34.530Z,1.00
2022-09-21T07:10:05.741Z,1.10
2022-09-21T07:10:35.911Z,1.20
2022-09-21T07:11:34.534Z,1.10
2022-09-21T07:12:34.459Z,1.10
2022-09-21T07:13:34.448Z,1.20
2022-09-21T07:14:34.428Z,1.30
2022-09-21T07:15:34.419Z,1.20
2022-09-21T07:16:34.917Z,1.10
2022-09-21T07:17:34.387Z,1.20
2022-09-21T07:18:42.615Z,1.30
2022-09-21T07:19:35.364Z,1.20
2022-09-21T07:20:34.345Z,1.20
2022-09-21T07:21:34.380Z,1.20
2022-09-21T07:22:34.317Z,1.10
2022-09-21T07:23:34.319Z,1.40
2022-09-21T07:24:34.297Z,1.10
2022-09-21T07:25:34.277Z,1.60
2022-09-21T07:26:34.645Z,1.20
2022-09-21T07:27:34.266Z,1.40
2022-09-21T07:28:34.467Z,1.20
2022-09-21T07:29:34.229Z,1.30
2022-09-21T07:30:34.216Z,1.20
2022-09-21T07:31:34.755Z,1.00
2022-09-21T07:32:34.185Z,1.40
2022-09-21T07:33:36.108Z,1.30
2022-09-21T07:34:34.162Z,1.10
2022-09-21T07:35:34.156Z,1.30
2022-09-21T07:36:34.550Z,1.20
2022-09-21T07:37:34.131Z,1.30
2022-09-21T07:38:34.110Z,1.40
2022-09-21T07:39:34.113Z,1.40
2022-09-21T07:40:34.116Z,1.10
2022-09-21T07:41:34.203Z,1.40
2022-09-21T07:42:50.664Z,1.60
2022-09-21T07:43:34.209Z,1.40
2022-09-21T07:44:42.061Z,1.60
2022-09-21T07:46:12.396Z,1.30
2022-09-21T07:47:02.500Z,1.50
2022-09-21T07:48:06.353Z,1.60
2022-09-21T07:48:35.611Z,1.30
2022-09-21T07:51:11.740Z,1.40
2022-09-21T07:52:28.047Z,1.50
2022-09-21T07:53:03.832Z,1.30
2022-09-21T07:54:05.975Z,1.30
2022-09-21T07:55:16.061Z,1.40
2022-09-21T07:56:08.518Z,1.60
2022-09-21T07:57:04.800Z,1.60
2022-09-21T07:58:09.601Z,1.90
2022-09-21T07:59:29.880Z,1.50
2022-09-21T08:01:25.355Z,1.60
2022-09-21T08:02:25.561Z,1.40
2022-09-21T08:04:33.711Z,2.00
2022-09-21T08:05:14.284Z,1.80
2022-09-21T08:06:17.376Z,1.70
2022-09-21T08:07:34.373Z,1.90
2022-09-21T08:08:21.055Z,1.80
2022-09-21T08:09:16.662Z,1.70
2022-09-21T08:10:19.676Z,1.90
2022-09-21T08:11:16.801Z,2.10
2022-09-21T08:12:11.869Z,1.80
2022-09-21T08:14:15.602Z,1.90
2022-09-21T08:15:47.342Z,1.70
2022-09-21T08:18:49.622Z,1.60
2022-09-21T08:19:56.431Z,2.10
2022-09-21T08:20:52.001Z,1.80
2022-09-21T08:21:57.898Z,1.70
2022-09-21T08:22:57.056Z,2.00
2022-09-21T08:23:48.674Z,1.70
2022-09-21T08:25:10.557Z,2.00
2022-09-21T08:25:51.283Z,2.00
2022-09-21T08:26:46.985Z,1.70
2022-09-21T08:27:47.324Z,1.90
2022-09-21T08:28:46.884Z,1.80
2022-09-21T08:29:46.874Z,1.80
2022-09-21T08:30:46.861Z,2.10
2022-09-21T08:31:47.023Z,1.70
2022-09-21T08:32:51.347Z,1.60
2022-09-21T08:33:47.021Z,1.50
2022-09-21T08:34:46.817Z,1.50
2022-09-21T08:35:46.792Z,1.70
2022-09-21T08:36:47.590Z,1.80
2022-09-21T08:37:46.772Z,1.40
2022-09-21T08:38:46.761Z,1.50
2022-09-21T08:39:47.052Z,1.50
2022-09-21T08:40:46.765Z,1.60
2022-09-21T08:41:46.711Z,1.40
2022-09-21T08:42:50.700Z,1.70
2022-09-21T08:43:46.691Z,1.60
2022-09-21T08:44:46.911Z,1.40
2022-09-21T08:45:46.669Z,1.30
2022-09-21T08:46:46.726Z,1.30
2022-09-21T08:47:46.640Z,1.60
2022-09-21T08:48:46.628Z,1.40
2022-09-21T08:49:46.930Z,1.60
2022-09-21T08:50:46.612Z,1.50
2022-09-21T08:51:46.589Z,1.30
2022-09-21T08:52:47.889Z,1.50
2022-09-21T08:53:46.590Z,1.40
2022-09-21T08:54:46.869Z,1.50
2022-09-21T08:55:46.533Z,1.30
2022-09-21T08:57:01.050Z,1.50
2022-09-21T08:57:47.510Z,1.30
2022-09-21T08:58:46.535Z,1.70
2022-09-21T08:59:46.749Z,1.60
2022-09-21T09:00:46.524Z,1.30
2022-09-21T09:01:46.484Z,1.50
2022-09-21T09:02:46.447Z,1.50
2022-09-21T09:03:46.427Z,1.30
2022-09-21T09:04:46.641Z,1.10
2022-09-21T09:05:46.407Z,1.20
2022-09-21T09:06:46.403Z,1.10
2022-09-21T09:07:46.385Z,1.30
2022-09-21T09:08:46.365Z,1.10
2022-09-21T09:09:46.676Z,0.80
2022-09-21T09:10:46.335Z,1.00
2022-09-21T09:11:46.323Z,1.00
2022-09-21T09:12:46.324Z,1.10
2022-09-21T09:13:46.337Z,1.20
2022-09-21T09:14:46.624Z,0.80
2022-09-21T09:15:46.316Z,1.00
2022-09-21T09:16:46.262Z,1.10
2022-09-21T09:17:46.263Z,1.00
2022-09-21T09:18:46.233Z,0.90
2022-09-21T09:19:46.667Z,1.00
2022-09-21T09:20:46.227Z,1.30
2022-09-21T09:21:46.196Z,0.90
2022-09-21T09:22:46.183Z,1.00
2022-09-21T09:23:46.166Z,0.90
2022-09-21T09:24:46.650Z,1.10
2022-09-21T09:25:46.140Z,0.80
2022-09-21T09:26:46.135Z,0.90
2022-09-21T09:27:46.111Z,0.80
2022-09-21T09:28:50.128Z,0.70
2022-09-21T09:29:47.521Z,0.90
2022-09-21T09:30:46.081Z,0.70
2022-09-21T09:31:46.126Z,0.80
2022-09-21T09:32:46.072Z,1.10
2022-09-21T09:33:46.033Z,0.70
2022-09-21T09:34:46.020Z,1.00
2022-09-21T09:35:46.441Z,0.70
2022-09-21T09:36:58.336Z,1.10
2022-09-21T09:37:46.982Z,0.80
2022-09-21T09:38:45.973Z,0.80
2022-09-21T09:39:45.974Z,1.00
2022-09-21T09:40:46.026Z,0.70
2022-09-21T09:41:45.919Z,0.70
2022-09-21T09:42:45.989Z,0.70
2022-09-21T09:43:45.900Z,0.40
2022-09-21T09:44:45.888Z,0.60
2022-09-21T09:45:45.882Z,0.60
2022-09-21T09:46:46.232Z,0.50
2022-09-21T09:47:45.838Z,0.60
2022-09-21T09:48:46.667Z,0.40
2022-09-21T09:49:45.823Z,0.50
2022-09-21T09:50:45.808Z,0.40
2022-09-21T09:51:46.158Z,0.40
2022-09-21T09:52:45.777Z,0.40
2022-09-21T09:53:45.769Z,0.40
2022-09-21T09:54:45.759Z,0.30
2022-09-21T09:55:45.746Z,0.20
2022-09-21T09:56:46.174Z,0.30
2022-09-21T09:57:45.707Z,0.40
2022-09-21T09:58:45.695Z,0.50
2022-09-21T09:59:54.549Z,0.20
2022-09-21T10:00:53.164Z,0.40
2022-09-21T10:01:53.134Z,0.40
2022-09-21T10:02:52.674Z,0.30
2022-09-21T10:03:52.884Z,0.30
2022-09-21T10:04:53.646Z,0.30
2022-09-21T10:05:45.607Z,0.30
2022-09-21T10:06:47.022Z,0.40
2022-09-21T10:07:45.902Z,0.50
2022-09-21T10:08:45.592Z,0.30
2022-09-21T10:09:45.569Z,0.40
2022-09-21T10:10:45.554Z,0.30
2022-09-21T10:11:45.561Z,0.40
2022-09-21T10:12:45.573Z,0.30
2022-09-21T10:13:45.509Z,0.30
2022-09-21T10:14:45.526Z,0.30
2022-09-21T10:15:45.508Z,0.20
2022-09-21T10:16:45.487Z,0.30
2022-09-21T10:17:45.466Z,0.30
2022-09-21T10:18:45.745Z,0.40
2022-09-21T10:19:45.427Z,0.30
2022-09-21T10:20:45.424Z,0.30
2022-09-21T10:21:48.794Z,0.30
2022-09-21T10:22:46.783Z,0.30
2022-09-21T10:23:45.386Z,0.40
2022-09-21T10:24:45.364Z,0.40
2022-09-21T10:25:45.361Z,0.30
2022-09-21T10:26:45.341Z,0.40
2022-09-21T10:27:45.344Z,0.30
2022-09-21T10:28:45.753Z,0.30
2022-09-21T10:29:45.323Z,0.30
2022-09-21T10:30:45.330Z,0.30
2022-09-21T10:31:45.272Z,0.30
2022-09-21T10:32:45.272Z,0.30
2022-09-21T10:33:45.603Z,0.50
2022-09-21T10:34:45.236Z,0.20
2022-09-21T10:35:45.223Z,0.30
2022-09-21T10:36:45.222Z,0.20
2022-09-21T10:37:45.213Z,0.30
2022-09-21T10:38:45.211Z,0.40
2022-09-21T10:39:45.630Z,0.30
2022-09-21T10:40:45.239Z,0.30
2022-09-21T10:41:45.141Z,0.20
2022-09-21T10:42:45.143Z,0.20
2022-09-21T10:43:45.112Z,0.30
2022-09-21T10:44:45.110Z,0.30
2022-09-21T10:45:45.523Z,0.20
2022-09-21T10:46:45.167Z,0.30
2022-09-21T10:47:45.069Z,0.30
2022-09-21T10:48:45.060Z,0.30
2022-09-21T10:49:45.089Z,0.30
2022-09-21T10:50:45.400Z,0.30
2022-09-21T10:51:45.009Z,0.30
2022-09-21T10:52:47.268Z,0.20
2022-09-21T10:53:44.989Z,0.30
2022-09-21T10:54:44.976Z,0.30
2022-09-21T10:55:58.531Z,0.20
2022-09-21T10:56:45.957Z,0.40
2022-09-21T10:57:44.938Z,0.30
2022-09-21T10:58:44.929Z,0.30
2022-09-21T10:59:44.916Z,0.30
2022-09-21T11:00:44.910Z,0.30
2022-09-21T11:01:45.192Z,0.30
2022-09-21T11:02:44.943Z,0.30
2022-09-21T11:03:44.860Z,0.30
2022-09-21T11:04:44.847Z,0.20
2022-09-21T11:05:44.842Z,0.40
2022-09-21T11:06:45.050Z,0.40
2022-09-21T11:07:44.817Z,0.30
2022-09-21T11:08:44.819Z,0.30
2022-09-21T11:09:44.779Z,0.30
2022-09-21T11:10:44.776Z,0.40
2022-09-21T11:11:45.218Z,0.30
2022-09-21T11:12:44.756Z,0.30
2022-09-21T11:13:44.726Z,0.30
2022-09-21T11:14:44.736Z,0.50
2022-09-21T11:15:44.769Z,0.20
2022-09-21T11:16:44.916Z,0.30
2022-09-21T11:17:44.697Z,0.30
2022-09-21T11:18:44.665Z,0.30
2022-09-21T11:19:44.660Z,0.40
2022-09-21T11:20:44.648Z,0.30
2022-09-21T11:21:45.005Z,0.40
2022-09-21T11:22:44.625Z,0.30
2022-09-21T11:23:44.605Z,0.40
2022-09-21T11:24:44.595Z,0.30
2022-09-21T11:25:44.574Z,0.40
2022-09-21T11:26:44.909Z,0.40
2022-09-21T11:27:44.562Z,0.20
2022-09-21T11:28:44.542Z,0.30
2022-09-21T11:29:44.543Z,0.40
2022-09-21T11:30:46.542Z,0.30
2022-09-21T11:31:44.756Z,0.40
2022-09-21T11:32:44.483Z,0.40
2022-09-21T11:33:44.509Z,0.20
2022-09-21T11:34:44.455Z,0.30
2022-09-21T11:35:44.453Z,0.40
2022-09-21T11:36:44.432Z,0.30
2022-09-21T11:37:44.671Z,0.30
2022-09-21T11:38:44.403Z,0.30
2022-09-21T11:39:44.395Z,0.30
2022-09-21T11:40:44.393Z,0.30
2022-09-21T11:41:44.375Z,0.30
2022-09-21T11:42:44.583Z,0.30
2022-09-21T11:43:44.363Z,0.30
2022-09-21T11:44:44.343Z,0.30
2022-09-21T11:45:49.699Z,0.30
2022-09-21T11:46:45.302Z,0.30
2022-09-21T11:47:51.624Z,0.40
2022-09-21T11:48:51.284Z,0.30
2022-09-21T11:49:58.984Z,0.30
2022-09-21T11:53:04.046Z,0.30
2022-09-21T11:54:03.588Z,0.30
2022-09-21T11:55:03.575Z,0.30
2022-09-21T11:56:03.555Z,0.30
2022-09-21T11:57:03.554Z,0.20
2022-09-21T11:58:03.534Z,0.30
2022-09-21T11:59:03.944Z,0.40
2022-09-21T12:00:03.506Z,0.30
2022-09-21T12:01:03.839Z,0.20
2022-09-21T12:02:05.350Z,0.20
2022-09-21T12:03:03.563Z,0.30
2022-09-21T12:04:03.907Z,0.30
2022-09-21T12:05:03.443Z,0.30
2022-09-21T12:06:03.435Z,0.30
2022-09-21T12:07:03.411Z,0.30
2022-09-21T12:08:03.423Z,0.30
2022-09-21T12:09:03.427Z,0.20
2022-09-21T12:10:07.404Z,0.30
2022-09-21T12:11:04.381Z,0.30
2022-09-21T12:12:03.352Z,0.30
2022-09-21T12:13:04.260Z,0.30
2022-09-21T12:14:03.330Z,0.30
2022-09-21T12:15:03.733Z,0.30
2022-09-21T12:16:03.302Z,0.20
2022-09-21T12:17:05.557Z,0.20
2022-09-21T12:18:03.299Z,0.30
2022-09-21T12:19:03.630Z,0.30
2022-09-21T12:20:03.264Z,0.20
2022-09-21T12:21:03.360Z,0.50
2022-09-21T12:22:03.221Z,0.20
2022-09-21T12:23:03.203Z,0.30
2022-09-21T12:24:03.641Z,0.20
2022-09-21T12:25:03.187Z,0.30
2022-09-21T12:26:03.182Z,0.20
2022-09-21T12:27:04.064Z,0.20
2022-09-21T12:28:03.160Z,0.30
2022-09-21T12:29:03.192Z,0.20
2022-09-21T12:30:03.212Z,0.20
2022-09-21T12:31:03.226Z,0.20
2022-09-21T12:32:07.071Z,0.30
2022-09-21T12:33:03.461Z,0.20
2022-09-21T12:34:03.075Z,0.30
2022-09-21T12:35:04.380Z,0.30
2022-09-21T12:36:03.121Z,0.40
2022-09-21T12:37:03.030Z,0.20
2022-09-21T12:38:03.063Z,0.30
2022-09-21T12:39:03.047Z,0.20
2022-09-21T12:40:03.034Z,0.30
2022-09-21T12:41:03.441Z,0.30
2022-09-21T12:42:03.090Z,0.30
2022-09-21T12:43:02.950Z,0.30
2022-09-21T12:44:03.322Z,0.20
2022-09-21T12:45:02.922Z,0.20
2022-09-21T12:46:02.988Z,0.30
2022-09-21T12:47:02.911Z,0.30
2022-09-21T12:48:02.889Z,0.50
2022-09-21T12:49:02.916Z,0.20
2022-09-21T12:50:02.930Z,0.30
2022-09-21T12:51:05.822Z,0.40
2022-09-21T12:52:02.869Z,0.20
2022-09-21T12:53:03.264Z,0.30
2022-09-21T12:54:02.816Z,0.20
2022-09-21T12:55:03.043Z,0.30
2022-09-21T12:56:05.425Z,0.20
2022-09-21T12:57:12.935Z,0.20
2022-09-21T12:58:15.164Z,0.20
2022-09-21T12:59:04.110Z,0.30
2022-09-21T13:00:02.750Z,0.30
2022-09-21T13:01:02.857Z,0.10
2022-09-21T13:02:02.906Z,0.20
2022-09-21T13:03:05.916Z,0.30
2022-09-21T13:04:03.678Z,0.30
2022-09-21T13:05:03.019Z,0.30
2022-09-21T13:06:02.657Z,0.20
2022-09-21T13:07:02.638Z,0.30
2022-09-21T13:08:02.756Z,0.30
2022-09-21T13:09:04.211Z,0.40
2022-09-21T13:10:02.606Z,0.30
2022-09-21T13:11:02.612Z,0.30
2022-09-21T13:12:02.578Z,0.20
2022-09-21T13:13:02.574Z,0.30
2022-09-21T13:14:02.558Z,0.30
2022-09-21T13:15:02.959Z,0.30
2022-09-21T13:16:02.618Z,0.30
2022-09-21T13:17:02.516Z,0.20
2022-09-21T13:18:02.507Z,0.20
2022-09-21T13:19:02.838Z,0.30
2022-09-21T13:20:02.494Z,0.30
2022-09-21T13:21:02.479Z,0.30
2022-09-21T13:22:02.439Z,0.10
2022-09-21T13:23:02.436Z,0.30
2022-09-21T13:24:02.417Z,0.20
2022-09-21T13:25:02.856Z,0.30
2022-09-21T13:26:02.396Z,0.30
2022-09-21T13:27:02.389Z,0.20
2022-09-21T13:28:02.368Z,0.20
2022-09-21T13:29:02.710Z,0.30